Wetterstation Vordersexau
Wetterdaten: Woche 01.09.14 - 07.09.14 (KW36)
Datum Zeit Temp. A. Feuchte A. Luftdruck Regen Wind Richtung Taupunkt Windchill Windben
01.09.2014 09:00 15,5 C 86 % 991,0 hPa 3,9 l/m 0,0 km/h W-NW 13,2 C 15,5 C 0,0 km/h
01.09.2014 10:00 19,8 C 76 % 991,2 hPa 0,0 l/m 0,0 km/h W-NW 15,4 C 19,8 C 0,0 km/h
01.09.2014 11:00 19,2 C 63 % 991,6 hPa 0,0 l/m 0,0 km/h N-NO 12,0 C 19,2 C 0,0 km/h
01.09.2014 12:00 19,6 C 67 % 991,6 hPa 0,0 l/m 0,0 km/h O-SO 13,3 C 19,6 C 0,0 km/h
01.09.2014 13:00 19,4 C 64 % 991,6 hPa 0,0 l/m 0,0 km/h N 12,4 C 19,4 C 0,0 km/h
01.09.2014 14:00 20,8 C 55 % 991,3 hPa 0,0 l/m 0,0 km/h O 11,4 C 20,8 C 0,0 km/h
01.09.2014 15:00 22,9 C 56 % 991,6 hPa 0,0 l/m 0,0 km/h N-NO 13,6 C 22,9 C 0,0 km/h
01.09.2014 16:00 19,1 C 62 % 991,5 hPa 0,0 l/m 0,0 km/h N-NO 11,6 C 19,1 C 0,0 km/h
01.09.2014 17:00 20,2 C 59 % 991,2 hPa 0,0 l/m 0,0 km/h O-NO 11,9 C 20,2 C 0,0 km/h
01.09.2014 18:00 20,1 C 61 % 991,4 hPa 0,0 l/m 0,0 km/h N-NO 12,3 C 20,1 C 0,0 km/h
01.09.2014 19:00 17,8 C 63 % 991,4 hPa 0,0 l/m 0,0 km/h NO 10,7 C 17,8 C 0,0 km/h
01.09.2014 20:00 12,2 C 79 % 991,9 hPa 0,0 l/m 0,0 km/h NO 8,7 C 12,2 C 0,0 km/h
01.09.2014 21:00 11,1 C 84 % 992,3 hPa 0,0 l/m 0,0 km/h SO 8,5 C 11,1 C 0,0 km/h
01.09.2014 22:00 10,4 C 85 % 992,0 hPa 0,0 l/m 0,0 km/h SO 8,0 C 10,4 C 0,0 km/h
01.09.2014 23:00 9,8 C 85 % 992,0 hPa 0,0 l/m 0,0 km/h SO 7,4 C 9,8 C 0,0 km/h
02.09.2014 00:00 9,3 C 86 % 991,6 hPa 0,0 l/m 0,0 km/h O 7,1 C 9,3 C 0,0 km/h
02.09.2014 01:00 9,1 C 85 % 991,4 hPa 0,0 l/m 0,0 km/h N-NO 6,7 C 9,1 C 0,0 km/h
02.09.2014 02:00 10,5 C 85 % 991,3 hPa 0,0 l/m 0,0 km/h N-NO 8,1 C 10,5 C 0,0 km/h
02.09.2014 03:00 10,9 C 84 % 991,3 hPa 0,0 l/m 0,0 km/h N-NO 8,3 C 10,9 C 0,0 km/h
02.09.2014 04:00 10,9 C 84 % 991,1 hPa 0,0 l/m 0,0 km/h SO 8,3 C 10,9 C 0,0 km/h
02.09.2014 05:00 11,2 C 83 % 991,2 hPa 0,0 l/m 0,0 km/h O 8,4 C 11,2 C 0,0 km/h
02.09.2014 06:00 11,0 C 84 % 991,3 hPa 0,0 l/m 0,0 km/h O-NO 8,4 C 11,0 C 0,0 km/h
02.09.2014 07:00 11,8 C 83 % 991,2 hPa 0,0 l/m 0,0 km/h N-NW 9,0 C 11,8 C 0,0 km/h
02.09.2014 08:00 13,9 C 85 % 991,4 hPa 0,0 l/m 0,0 km/h W 11,4 C 13,9 C 0,0 km/h
02.09.2014 09:00 16,6 C 79 % 991,6 hPa 0,0 l/m 0,0 km/h W 12,9 C 16,6 C 0,0 km/h
02.09.2014 10:00 21,2 C 70 % 991,5 hPa 0,0 l/m 0,0 km/h W-SW 15,5 C 21,2 C 0,0 km/h
02.09.2014 11:00 24,0 C 60 % 991,0 hPa 0,0 l/m 0,0 km/h NW 15,7 C 24,0 C 0,0 km/h
02.09.2014 12:00 21,3 C 57 % 991,0 hPa 0,0 l/m 0,0 km/h N 12,4 C 21,3 C 0,0 km/h
02.09.2014 13:00 23,1 C 55 % 990,7 hPa 0,0 l/m 0,0 km/h NO 13,6 C 23,1 C 0,0 km/h
02.09.2014 14:00 20,9 C 61 % 990,8 hPa 0,0 l/m 0,0 km/h N 13,1 C 20,9 C 0,0 km/h
02.09.2014 15:00 23,8 C 54 % 990,4 hPa 0,0 l/m 0,0 km/h N-NO 13,9 C 23,8 C 0,0 km/h
02.09.2014 16:00 20,3 C 64 % 990,4 hPa 0,0 l/m 0,0 km/h NO 13,3 C 20,3 C 0,0 km/h
02.09.2014 17:00 21,4 C 64 % 990,2 hPa 0,0 l/m 0,0 km/h N-NO 14,3 C 21,4 C 0,0 km/h
02.09.2014 18:00 20,8 C 64 % 990,5 hPa 0,0 l/m 0,0 km/h N 13,7 C 20,8 C 0,0 km/h
02.09.2014 19:00 17,8 C 70 % 990,8 hPa 0,0 l/m 0,0 km/h NO 12,3 C 17,8 C 0,0 km/h
02.09.2014 20:00 16,5 C 75 % 991,3 hPa 0,0 l/m 0,0 km/h O-NO 12,1 C 16,5 C 0,0 km/h
02.09.2014 21:00 15,6 C 76 % 991,4 hPa 0,0 l/m 0,0 km/h N-NO 11,4 C 15,6 C 0,0 km/h
02.09.2014 22:00 14,2 C 80 % 991,3 hPa 0,0 l/m 0,0 km/h NO 10,8 C 14,2 C 0,0 km/h
02.09.2014 23:00 12,8 C 83 % 990,9 hPa 0,0 l/m 0,0 km/h O-NO 10,0 C 12,8 C 0,0 km/h
03.09.2014 00:00 11,5 C 84 % 990,7 hPa 0,0 l/m 0,0 km/h O-NO 8,9 C 11,5 C 0,0 km/h
03.09.2014 01:00 11,1 C 85 % 990,4 hPa 0,0 l/m 0,0 km/h SO 8,7 C 11,1 C 0,0 km/h
03.09.2014 02:00 10,5 C 85 % 990,1 hPa 0,0 l/m 0,0 km/h NW 8,1 C 10,5 C 0,0 km/h
03.09.2014 03:00 10,5 C 85 % 989,9 hPa 0,0 l/m 0,0 km/h O-NO 8,1 C 10,5 C 0,0 km/h
03.09.2014 04:00 9,5 C 86 % 989,7 hPa 0,0 l/m 0,0 km/h O-NO 7,3 C 9,5 C 0,0 km/h
03.09.2014 05:00 9,5 C 86 % 989,5 hPa 0,0 l/m 0,0 km/h NO 7,3 C 9,5 C 0,0 km/h
03.09.2014 06:00 10,6 C 85 % 989,5 hPa 0,0 l/m 0,0 km/h O-NO 8,2 C 10,6 C 0,0 km/h
03.09.2014 07:00 11,8 C 84 % 989,6 hPa 0,0 l/m 0,0 km/h N 9,2 C 11,8 C 0,0 km/h
03.09.2014 08:00 13,9 C 84 % 989,2 hPa 0,0 l/m 0,0 km/h W-NW 11,2 C 13,9 C 0,0 km/h
03.09.2014 09:00 17,6 C 82 % 989,2 hPa 0,0 l/m 0,0 km/h N-NO 14,5 C 17,6 C 0,0 km/h
03.09.2014 10:00 19,2 C 75 % 989,1 hPa 0,0 l/m 0,0 km/h N-NO 14,7 C 19,2 C 0,0 km/h
03.09.2014 11:00 22,4 C 64 % 988,8 hPa 0,0 l/m 0,0 km/h N-NO 15,2 C 22,4 C 0,0 km/h
03.09.2014 12:00 20,9 C 63 % 988,6 hPa 0,0 l/m 0,0 km/h N-NO 13,6 C 20,9 C 0,0 km/h
03.09.2014 13:00 20,9 C 67 % 988,2 hPa 0,0 l/m 0,0 km/h N-NO 14,5 C 20,9 C 0,0 km/h
03.09.2014 14:00 19,6 C 68 % 988,5 hPa 0,0 l/m 0,0 km/h N-NO 13,5 C 19,6 C 0,0 km/h
03.09.2014 15:00 18,8 C 71 % 988,2 hPa 0,0 l/m 0,0 km/h N 13,4 C 18,8 C 0,0 km/h
03.09.2014 16:00 17,5 C 74 % 987,9 hPa 0,0 l/m 0,0 km/h N-NO 12,8 C 17,5 C 0,0 km/h
03.09.2014 17:00 17,2 C 76 % 987,7 hPa 0,0 l/m 0,0 km/h N-NO 12,9 C 17,2 C 0,0 km/h
03.09.2014 18:00 16,6 C 77 % 987,8 hPa 0,0 l/m 0,0 km/h N-NO 12,5 C 16,6 C 0,0 km/h
03.09.2014 19:00 16,1 C 80 % 987,8 hPa 0,0 l/m 0,0 km/h N 12,6 C 16,1 C 0,0 km/h
03.09.2014 20:00 15,9 C 81 % 988,3 hPa 0,0 l/m 0,0 km/h N 12,6 C 15,9 C 0,0 km/h
03.09.2014 21:00 15,4 C 82 % 988,1 hPa 0,0 l/m 0,0 km/h N 12,3 C 15,4 C 0,0 km/h
03.09.2014 22:00 15,3 C 83 % 988,1 hPa 0,0 l/m 0,0 km/h N-NO 12,4 C 15,3 C 0,0 km/h
03.09.2014 23:00 15,2 C 83 % 987,9 hPa 0,0 l/m 0,0 km/h N-NO 12,3 C 15,2 C 0,0 km/h
04.09.2014 00:00 14,9 C 84 % 987,6 hPa 0,0 l/m 0,0 km/h N-NO 12,2 C 14,9 C 0,0 km/h
04.09.2014 01:00 14,6 C 85 % 987,4 hPa 0,0 l/m 0,0 km/h N-NO 12,1 C 14,6 C 0,0 km/h
04.09.2014 02:00 14,5 C 85 % 987,0 hPa 0,0 l/m 0,0 km/h N-NO 12,0 C 14,5 C 0,0 km/h
04.09.2014 03:00 14,5 C 85 % 987,0 hPa 0,0 l/m 0,0 km/h N-NO 12,0 C 14,5 C 0,0 km/h
04.09.2014 04:00 14,7 C 85 % 986,9 hPa 0,0 l/m 0,0 km/h N-NO 12,2 C 14,7 C 0,0 km/h
04.09.2014 05:00 14,7 C 85 % 986,9 hPa 0,0 l/m 0,0 km/h O-SO 12,2 C 14,7 C 0,0 km/h
04.09.2014 06:00 16,0 C 82 % 986,8 hPa 0,0 l/m 0,0 km/h N-NO 12,9 C 16,0 C 0,0 km/h
04.09.2014 07:00 16,6 C 79 % 986,8 hPa 0,0 l/m 0,0 km/h SO 12,9 C 16,6 C 0,0 km/h
04.09.2014 08:00 19,9 C 72 % 986,9 hPa 0,0 l/m 0,0 km/h O-NO 14,7 C 19,9 C 0,0 km/h
04.09.2014 09:00 21,1 C 67 % 986,9 hPa 0,0 l/m 0,0 km/h N-NO 14,7 C 21,1 C 0,0 km/h
04.09.2014 10:00 22,1 C 62 % 987,3 hPa 0,0 l/m 0,0 km/h N-NO 14,5 C 22,1 C 0,0 km/h
04.09.2014 11:00 23,7 C 61 % 987,1 hPa 0,0 l/m 0,0 km/h N 15,7 C 23,7 C 0,0 km/h
04.09.2014 12:00 22,5 C 62 % 987,0 hPa 0,0 l/m 0,0 km/h O-NO 14,8 C 22,5 C 0,0 km/h
04.09.2014 13:00 23,8 C 58 % 987,0 hPa 0,0 l/m 0,0 km/h N-NO 15,0 C 23,8 C 0,0 km/h
04.09.2014 14:00 26,8 C 51 % 986,6 hPa 0,0 l/m 0,0 km/h N-NO 15,8 C 26,8 C 0,0 km/h
04.09.2014 15:00 30,9 C 43 % 986,2 hPa 0,0 l/m 0,0 km/h W-NW 16,8 C 30,9 C 0,0 km/h
04.09.2014 16:00 31,2 C 43 % 985,7 hPa 0,0 l/m 0,0 km/h W-NW 17,1 C 31,2 C 0,0 km/h
04.09.2014 17:00 29,8 C 46 % 985,3 hPa 0,0 l/m 0,0 km/h W 16,9 C 29,8 C 0,0 km/h
04.09.2014 18:00 21,8 C 64 % 985,8 hPa 0,0 l/m 0,0 km/h NW 14,7 C 21,8 C 0,0 km/h
04.09.2014 19:00 19,8 C 69 % 985,9 hPa 0,0 l/m 0,0 km/h O 13,9 C 19,8 C 0,0 km/h
04.09.2014 20:00 16,4 C 79 % 986,2 hPa 0,0 l/m 0,0 km/h O-SO 12,7 C 16,4 C 0,0 km/h
04.09.2014 21:00 15,3 C 82 % 986,2 hPa 0,0 l/m 0,0 km/h O 12,2 C 15,3 C 0,0 km/h
04.09.2014 22:00 14,8 C 83 % 986,3 hPa 0,0 l/m 0,0 km/h O 11,9 C 14,8 C 0,0 km/h
04.09.2014 23:00 14,2 C 84 % 986,5 hPa 0,0 l/m 0,0 km/h O 11,5 C 14,2 C 0,0 km/h
05.09.2014 00:00 13,9 C 85 % 986,6 hPa 0,0 l/m 0,0 km/h O 11,4 C 13,9 C 0,0 km/h
05.09.2014 01:00 13,5 C 85 % 986,4 hPa 0,0 l/m 0,0 km/h O 11,0 C 13,5 C 0,0 km/h
05.09.2014 02:00 13,5 C 85 % 985,9 hPa 0,0 l/m 0,0 km/h O 11,0 C 13,5 C 0,0 km/h
05.09.2014 03:00 13,8 C 85 % 985,8 hPa 0,0 l/m 0,0 km/h O 11,3 C 13,8 C 0,0 km/h
05.09.2014 04:00 13,9 C 85 % 986,1 hPa 0,0 l/m 0,0 km/h NO 11,4 C 13,9 C 0,0 km/h
05.09.2014 05:00 14,1 C 85 % 985,8 hPa 0,0 l/m 0,0 km/h NO 11,6 C 14,1 C 0,0 km/h
05.09.2014 06:00 13,8 C 85 % 986,0 hPa 0,0 l/m 0,0 km/h NO 11,3 C 13,8 C 0,0 km/h
05.09.2014 07:00 14,1 C 84 % 986,1 hPa 0,0 l/m 0,0 km/h NO 11,4 C 14,1 C 0,0 km/h
05.09.2014 08:00 16,1 C 84 % 986,3 hPa 0,0 l/m 0,0 km/h N-NO 13,4 C 16,1 C 0,0 km/h
05.09.2014 09:00 18,2 C 85 % 986,5 hPa 0,0 l/m 0,0 km/h N 15,6 C 18,2 C 0,0 km/h
05.09.2014 10:00 19,8 C 81 % 986,3 hPa 0,0 l/m 0,0 km/h N-NO 16,4 C 19,8 C 0,0 km/h
05.09.2014 11:00 20,8 C 77 % 986,1 hPa 0,0 l/m 0,0 km/h W-SW 16,6 C 20,8 C 0,0 km/h
05.09.2014 12:00 23,6 C 70 % 985,7 hPa 0,0 l/m 0,0 km/h W 17,8 C 23,6 C 0,0 km/h
05.09.2014 13:00 26,1 C 63 % 985,4 hPa 0,0 l/m 0,0 km/h W 18,5 C 26,1 C 0,0 km/h
05.09.2014 14:00 26,5 C 60 % 985,0 hPa 0,0 l/m 0,0 km/h W-SW 18,1 C 26,5 C 0,0 km/h
05.09.2014 15:00 30,4 C 51 % 984,1 hPa 0,0 l/m 0,0 km/h N 19,1 C 30,4 C 0,0 km/h
05.09.2014 16:00 32,8 C 44 % 984,0 hPa 0,0 l/m 0,0 km/h N-NO 18,9 C 32,8 C 0,0 km/h
05.09.2014 17:00 33,5 C 44 % 983,6 hPa 0,0 l/m 0,0 km/h N-NO 19,5 C 33,5 C 0,0 km/h
05.09.2014 18:00 31,8 C 44 % 983,4 hPa 0,0 l/m 0,0 km/h N-NO 18,0 C 31,8 C 0,0 km/h
05.09.2014 19:00 20,6 C 69 % 984,1 hPa 0,0 l/m 15,5 km/h O-NO 14,7 C 17,9 C 15,5 km/h
05.09.2014 20:00 17,8 C 79 % 984,6 hPa 0,0 l/m 0,0 km/h N-NO 14,1 C 17,8 C 0,0 km/h
05.09.2014 21:00 16,9 C 83 % 984,8 hPa 0,0 l/m 0,0 km/h NW 14,0 C 16,9 C 0,0 km/h
05.09.2014 22:00 15,5 C 84 % 984,7 hPa 0,0 l/m 0,0 km/h NO 12,8 C 15,5 C 0,0 km/h
05.09.2014 23:00 15,2 C 85 % 984,4 hPa 0,0 l/m 0,0 km/h NO 12,7 C 15,2 C 0,0 km/h
06.09.2014 00:00 14,1 C 85 % 984,7 hPa 0,0 l/m 0,0 km/h NO 11,6 C 14,1 C 0,0 km/h
06.09.2014 01:00 13,6 C 85 % 984,6 hPa 0,0 l/m 0,0 km/h O 11,1 C 13,6 C 0,0 km/h
06.09.2014 02:00 13,2 C 85 % 984,5 hPa 0,0 l/m 0,0 km/h NO 10,7 C 13,2 C 0,0 km/h
06.09.2014 03:00 12,9 C 85 % 984,4 hPa 0,0 l/m 0,0 km/h NO 10,4 C 12,9 C 0,0 km/h
06.09.2014 04:00 12,6 C 84 % 984,3 hPa 0,0 l/m 0,0 km/h SO 10,0 C 12,6 C 0,0 km/h
06.09.2014 05:00 12,5 C 84 % 984,0 hPa 0,0 l/m 0,0 km/h SO 9,9 C 12,5 C 0,0 km/h
06.09.2014 06:00 12,1 C 83 % 983,9 hPa 0,0 l/m 0,0 km/h O-SO 9,3 C 12,1 C 0,0 km/h
06.09.2014 07:00 12,6 C 82 % 984,3 hPa 0,0 l/m 0,0 km/h O-SO 9,6 C 12,6 C 0,0 km/h
06.09.2014 08:00 16,1 C 70 % 984,3 hPa 0,0 l/m 0,0 km/h NW 10,6 C 16,1 C 0,0 km/h
06.09.2014 09:00 24,1 C 69 % 984,6 hPa 0,0 l/m 0,0 km/h W 18,0 C 24,1 C 0,0 km/h
06.09.2014 10:00 26,6 C 62 % 984,5 hPa 0,0 l/m 0,0 km/h N-NW 18,7 C 26,6 C 0,0 km/h
06.09.2014 11:00 30,0 C 53 % 984,3 hPa 0,0 l/m 0,0 km/h N-NW 19,4 C 30,0 C 0,0 km/h
06.09.2014 12:00 30,3 C 52 % 983,8 hPa 0,0 l/m 0,0 km/h NW 19,3 C 30,3 C 0,0 km/h
06.09.2014 13:00 30,5 C 53 % 983,3 hPa 0,0 l/m 0,0 km/h S-SW 19,8 C 30,5 C 0,0 km/h
06.09.2014 14:00 30,9 C 48 % 982,7 hPa 0,0 l/m 0,0 km/h N 18,6 C 30,9 C 0,0 km/h
06.09.2014 15:00 32,8 C 44 % 982,4 hPa 0,0 l/m 0,0 km/h SO 18,9 C 32,8 C 0,0 km/h
06.09.2014 16:00 33,9 C 41 % 982,3 hPa 0,0 l/m 0,0 km/h O-SO 18,8 C 33,9 C 0,0 km/h
06.09.2014 17:00 28,9 C 49 % 982,3 hPa 0,0 l/m 0,0 km/h SO 17,1 C 28,9 C 0,0 km/h
06.09.2014 18:00 29,2 C 51 % 982,3 hPa 0,0 l/m 0,0 km/h NO 18,0 C 29,2 C 0,0 km/h
06.09.2014 19:00 21,9 C 64 % 982,7 hPa 0,0 l/m 0,0 km/h N-NO 14,8 C 21,9 C 0,0 km/h
06.09.2014 20:00 17,9 C 75 % 983,5 hPa 0,0 l/m 0,0 km/h SO 13,4 C 17,9 C 0,0 km/h
06.09.2014 21:00 17,1 C 81 % 983,8 hPa 0,0 l/m 0,0 km/h O-SO 13,8 C 17,1 C 0,0 km/h
06.09.2014 22:00 16,5 C 83 % 984,0 hPa 0,0 l/m 0,0 km/h O-SO 13,6 C 16,5 C 0,0 km/h
06.09.2014 23:00 15,6 C 84 % 983,9 hPa 0,0 l/m 0,0 km/h O-NO 12,9 C 15,6 C 0,0 km/h
07.09.2014 00:00 15,1 C 84 % 984,1 hPa 0,0 l/m 0,0 km/h O-NO 12,4 C 15,1 C 0,0 km/h
07.09.2014 01:00 15,0 C 85 % 984,3 hPa 0,0 l/m 0,0 km/h SO 12,5 C 15,0 C 0,0 km/h
07.09.2014 02:00 14,7 C 85 % 984,3 hPa 0,0 l/m 0,0 km/h O-NO 12,2 C 14,7 C 0,0 km/h
07.09.2014 03:00 14,9 C 85 % 984,2 hPa 0,0 l/m 0,0 km/h SO 12,4 C 14,9 C 0,0 km/h
07.09.2014 04:00 14,4 C 85 % 984,2 hPa 0,0 l/m 0,0 km/h O 11,9 C 14,4 C 0,0 km/h
07.09.2014 05:00 14,1 C 84 % 984,2 hPa 0,0 l/m 0,0 km/h O-SO 11,4 C 14,1 C 0,0 km/h
07.09.2014 06:00 14,2 C 84 % 984,4 hPa 0,0 l/m 0,0 km/h O-SO 11,5 C 14,2 C 0,0 km/h
07.09.2014 07:00 14,4 C 83 % 984,9 hPa 0,0 l/m 0,0 km/h O 11,5 C 14,4 C 0,0 km/h
07.09.2014 08:00 17,6 C 81 % 985,1 hPa 0,0 l/m 0,0 km/h S-SO 14,3 C 17,6 C 0,0 km/h
07.09.2014 09:00 21,4 C 78 % 985,4 hPa 0,0 l/m 0,0 km/h W 17,4 C 21,4 C 0,0 km/h
07.09.2014 10:00 23,6 C 71 % 985,4 hPa 0,0 l/m 0,0 km/h W 18,0 C 23,6 C 0,0 km/h
07.09.2014 11:00 29,1 C 55 % 985,2 hPa 0,0 l/m 0,0 km/h W 19,1 C 29,1 C 0,0 km/h
07.09.2014 12:00 30,1 C 54 % 984,8 hPa 0,0 l/m 0,0 km/h W-NW 19,7 C 30,1 C 0,0 km/h
07.09.2014 13:00 29,5 C 52 % 984,3 hPa 0,0 l/m 0,0 km/h W 18,6 C 29,5 C 0,0 km/h
07.09.2014 14:00 29,9 C 49 % 983,9 hPa 0,0 l/m 0,0 km/h W-NW 18,0 C 29,9 C 0,0 km/h
07.09.2014 15:00 32,4 C 42 % 983,8 hPa 0,0 l/m 0,0 km/h W 17,8 C 32,4 C 0,0 km/h
07.09.2014 16:00 34,3 C 37 % 983,6 hPa 0,0 l/m 0,0 km/h W 17,5 C 34,3 C 0,0 km/h
07.09.2014 17:00 34,2 C 37 % 983,5 hPa 0,0 l/m 0,0 km/h N-NO 17,4 C 34,2 C 0,0 km/h
07.09.2014 18:00 26,4 C 50 % 983,9 hPa 0,0 l/m 0,0 km/h N-NO 15,1 C 26,4 C 0,0 km/h
07.09.2014 19:00 22,4 C 62 % 984,0 hPa 0,0 l/m 0,0 km/h NO 14,8 C 22,4 C 0,0 km/h
07.09.2014 20:00 18,3 C 75 % 984,7 hPa 0,0 l/m 0,0 km/h NO 13,8 C 18,3 C 0,0 km/h
07.09.2014 21:00 17,1 C 78 % 985,1 hPa 0,0 l/m 0,0 km/h SO 13,2 C 17,1 C 0,0 km/h
07.09.2014 22:00 16,6 C 82 % 985,3 hPa 0,0 l/m 0,0 km/h N-NO 13,5 C 16,6 C 0,0 km/h
07.09.2014 23:00 15,6 C 83 % 985,2 hPa 0,0 l/m 0,0 km/h N-NO 12,7 C 15,6 C 0,0 km/h
Min-Datum _ 02.09.14 07.09.14 06.09.14 - 01.09.14 - 02.09.14 02.09.14 01.09.14
_ Min-Zeit 01:53 16:53 16:53 - 09:53 - 01:53 01:53 09:53
Minimum _ 9,1 C 37 % 982,3 hPa - 0,0 km/h - 6,7 C 9,1 C 0,0 km/h
Max-Datum _ 07.09.14 01.09.14 01.09.14 01.09.14 05.09.14 - 06.09.14 07.09.14 05.09.14
_ Max-Zeit 16:53 09:53 21:53 09:53 19:53 - 13:53 16:53 19:53
Maximum _ 34,3 C 86 % 992,3 hPa 3,9 l/m 15,5 km/h
O-NO
- 19,8 C 34,3 C 15,5 km/h
O-NO
Durchschnitt _ 18,8 C 72 % 987,1 hPa #3,9 l/m 0,1 km/h N-NO 13,2 C 18,8 C 0,1 km/h
www.sexauwetter.de